sensor_id;sensor_type;location;lat;lon;timestamp;P1;durP1;ratioP1;P2;durP2;ratioP2
33644;SDS011;19986;48.190;16.366;2022-09-09T00:03:44;27.98;;;26.58;;
33644;SDS011;19986;48.190;16.366;2022-09-09T00:09:08;28.33;;;27.02;;
33644;SDS011;19986;48.190;16.366;2022-09-09T00:14:37;27.70;;;26.40;;
33644;SDS011;19986;48.190;16.366;2022-09-09T00:17:36;28.15;;;26.83;;
33644;SDS011;19986;48.190;16.366;2022-09-09T00:22:40;28.75;;;27.45;;
33644;SDS011;19986;48.190;16.366;2022-09-09T00:25:20;27.38;;;26.05;;
33644;SDS011;19986;48.190;16.366;2022-09-09T00:28:29;29.02;;;27.73;;
33644;SDS011;19986;48.190;16.366;2022-09-09T00:31:04;27.38;;;26.08;;
33644;SDS011;19986;48.190;16.366;2022-09-09T00:33:37;27.73;;;26.52;;
33644;SDS011;19986;48.190;16.366;2022-09-09T00:36:04;29.38;;;27.73;;
33644;SDS011;19986;48.190;16.366;2022-09-09T00:38:40;27.55;;;26.27;;
33644;SDS011;19986;48.190;16.366;2022-09-09T00:49:47;28.63;;;27.33;;
33644;SDS011;19986;48.190;16.366;2022-09-09T00:52:56;27.70;;;26.40;;
33644;SDS011;19986;48.190;16.366;2022-09-09T00:55:50;28.42;;;27.13;;
33644;SDS011;19986;48.190;16.366;2022-09-09T00:58:26;28.42;;;27.20;;
33644;SDS011;19986;48.190;16.366;2022-09-09T01:03:33;28.50;;;27.30;;
33644;SDS011;19986;48.190;16.366;2022-09-09T01:09:02;29.48;;;28.17;;
33644;SDS011;19986;48.190;16.366;2022-09-09T01:17:02;29.30;;;27.90;;
33644;SDS011;19986;48.190;16.366;2022-09-09T01:27:38;27.73;;;26.33;;
33644;SDS011;19986;48.190;16.366;2022-09-09T01:30:11;27.00;;;25.80;;
33644;SDS011;19986;48.190;16.366;2022-09-09T01:32:42;30.20;;;28.73;;
33644;SDS011;19986;48.190;16.366;2022-09-09T01:38:16;29.17;;;27.77;;
33644;SDS011;19986;48.190;16.366;2022-09-09T01:40:44;28.85;;;27.65;;
33644;SDS011;19986;48.190;16.366;2022-09-09T01:43:11;27.83;;;26.42;;
33644;SDS011;19986;48.190;16.366;2022-09-09T01:45:38;27.75;;;26.55;;
33644;SDS011;19986;48.190;16.366;2022-09-09T01:48:06;27.52;;;26.33;;
33644;SDS011;19986;48.190;16.366;2022-09-09T01:50:33;26.77;;;25.50;;
33644;SDS011;19986;48.190;16.366;2022-09-09T01:52:59;28.77;;;27.45;;
33644;SDS011;19986;48.190;16.366;2022-09-09T01:55:28;28.60;;;27.30;;
33644;SDS011;19986;48.190;16.366;2022-09-09T02:00:25;28.48;;;26.92;;
33644;SDS011;19986;48.190;16.366;2022-09-09T02:08:15;27.73;;;26.42;;
33644;SDS011;19986;48.190;16.366;2022-09-09T02:13:18;27.80;;;26.40;;
33644;SDS011;19986;48.190;16.366;2022-09-09T02:15:55;28.58;;;27.10;;
33644;SDS011;19986;48.190;16.366;2022-09-09T02:18:57;27.63;;;26.33;;
33644;SDS011;19986;48.190;16.366;2022-09-09T02:21:29;28.35;;;27.05;;
33644;SDS011;19986;48.190;16.366;2022-09-09T02:23:58;27.05;;;25.85;;
33644;SDS011;19986;48.190;16.366;2022-09-09T02:26:26;28.95;;;27.65;;
33644;SDS011;19986;48.190;16.366;2022-09-09T02:28:53;29.00;;;27.60;;
33644;SDS011;19986;48.190;16.366;2022-09-09T02:31:23;26.83;;;25.63;;
33644;SDS011;19986;48.190;16.366;2022-09-09T02:33:59;27.90;;;26.70;;
33644;SDS011;19986;48.190;16.366;2022-09-09T02:36:29;27.05;;;25.85;;
33644;SDS011;19986;48.190;16.366;2022-09-09T02:38:58;27.63;;;26.42;;
33644;SDS011;19986;48.190;16.366;2022-09-09T02:41:43;29.45;;;27.95;;
33644;SDS011;19986;48.190;16.366;2022-09-09T02:44:10;28.83;;;27.52;;
33644;SDS011;19986;48.190;16.366;2022-09-09T02:49:29;29.20;;;27.90;;
33644;SDS011;19986;48.190;16.366;2022-09-09T02:52:01;28.73;;;27.33;;
33644;SDS011;19986;48.190;16.366;2022-09-09T02:54:34;28.10;;;26.83;;
33644;SDS011;19986;48.190;16.366;2022-09-09T02:57:13;28.63;;;26.90;;
33644;SDS011;19986;48.190;16.366;2022-09-09T02:59:44;28.58;;;27.27;;
33644;SDS011;19986;48.190;16.366;2022-09-09T03:02:10;28.42;;;27.02;;
33644;SDS011;19986;48.190;16.366;2022-09-09T03:04:38;28.10;;;26.80;;
33644;SDS011;19986;48.190;16.366;2022-09-09T03:07:04;29.17;;;27.88;;
33644;SDS011;19986;48.190;16.366;2022-09-09T03:09:30;27.75;;;26.35;;
33644;SDS011;19986;48.190;16.366;2022-09-09T03:11:57;28.33;;;27.02;;
33644;SDS011;19986;48.190;16.366;2022-09-09T03:14:24;28.90;;;27.50;;
33644;SDS011;19986;48.190;16.366;2022-09-09T03:16:53;29.23;;;27.90;;
33644;SDS011;19986;48.190;16.366;2022-09-09T03:19:20;29.77;;;28.08;;
33644;SDS011;19986;48.190;16.366;2022-09-09T03:21:46;29.70;;;28.23;;
33644;SDS011;19986;48.190;16.366;2022-09-09T03:24:13;28.10;;;26.80;;
33644;SDS011;19986;48.190;16.366;2022-09-09T03:26:40;29.25;;;27.95;;
33644;SDS011;19986;48.190;16.366;2022-09-09T03:29:10;29.15;;;27.85;;
33644;SDS011;19986;48.190;16.366;2022-09-09T03:31:37;30.05;;;28.75;;
33644;SDS011;19986;48.190;16.366;2022-09-09T03:34:04;27.30;;;26.08;;
33644;SDS011;19986;48.190;16.366;2022-09-09T03:36:30;29.75;;;28.35;;
33644;SDS011;19986;48.190;16.366;2022-09-09T03:38:56;27.85;;;26.55;;
33644;SDS011;19986;48.190;16.366;2022-09-09T03:41:23;29.10;;;27.75;;
33644;SDS011;19986;48.190;16.366;2022-09-09T03:43:52;29.63;;;28.33;;
33644;SDS011;19986;48.190;16.366;2022-09-09T03:46:19;28.05;;;26.65;;
33644;SDS011;19986;48.190;16.366;2022-09-09T03:48:47;30.90;;;29.33;;
33644;SDS011;19986;48.190;16.366;2022-09-09T03:51:13;27.67;;;26.35;;
33644;SDS011;19986;48.190;16.366;2022-09-09T03:53:41;28.85;;;27.55;;
33644;SDS011;19986;48.190;16.366;2022-09-09T03:56:07;30.45;;;28.73;;
33644;SDS011;19986;48.190;16.366;2022-09-09T03:58:33;30.55;;;29.05;;
33644;SDS011;19986;48.190;16.366;2022-09-09T04:01:00;28.83;;;27.40;;
33644;SDS011;19986;48.190;16.366;2022-09-09T04:03:40;28.65;;;27.17;;
33644;SDS011;19986;48.190;16.366;2022-09-09T04:06:07;30.77;;;29.17;;
33644;SDS011;19986;48.190;16.366;2022-09-09T04:08:34;29.38;;;27.95;;
33644;SDS011;19986;48.190;16.366;2022-09-09T04:11:01;30.33;;;28.73;;
33644;SDS011;19986;48.190;16.366;2022-09-09T04:13:31;32.25;;;30.63;;
33644;SDS011;19986;48.190;16.366;2022-09-09T04:15:59;30.60;;;28.77;;
33644;SDS011;19986;48.190;16.366;2022-09-09T04:18:27;30.27;;;28.55;;
33644;SDS011;19986;48.190;16.366;2022-09-09T04:20:56;29.80;;;28.25;;
33644;SDS011;19986;48.190;16.366;2022-09-09T04:23:23;30.58;;;29.13;;
33644;SDS011;19986;48.190;16.366;2022-09-09T04:25:51;30.17;;;28.77;;
33644;SDS011;19986;48.190;16.366;2022-09-09T04:28:19;29.75;;;28.42;;
33644;SDS011;19986;48.190;16.366;2022-09-09T04:30:46;30.15;;;28.48;;
33644;SDS011;19986;48.190;16.366;2022-09-09T04:33:13;29.52;;;28.08;;
33644;SDS011;19986;48.190;16.366;2022-09-09T04:35:39;30.83;;;29.30;;
33644;SDS011;19986;48.190;16.366;2022-09-09T04:38:12;31.33;;;29.40;;
33644;SDS011;19986;48.190;16.366;2022-09-09T04:40:38;30.20;;;28.50;;
33644;SDS011;19986;48.190;16.366;2022-09-09T04:43:08;30.65;;;28.85;;
33644;SDS011;19986;48.190;16.366;2022-09-09T04:45:35;31.92;;;30.33;;
33644;SDS011;19986;48.190;16.366;2022-09-09T04:48:01;31.55;;;29.85;;
33644;SDS011;19986;48.190;16.366;2022-09-09T04:50:27;29.13;;;27.63;;
33644;SDS011;19986;48.190;16.366;2022-09-09T04:52:53;29.55;;;28.05;;
33644;SDS011;19986;48.190;16.366;2022-09-09T04:55:19;27.85;;;26.45;;
33644;SDS011;19986;48.190;16.366;2022-09-09T04:57:45;29.02;;;27.52;;
33644;SDS011;19986;48.190;16.366;2022-09-09T05:00:11;29.25;;;27.85;;
33644;SDS011;19986;48.190;16.366;2022-09-09T05:02:38;28.35;;;26.77;;
33644;SDS011;19986;48.190;16.366;2022-09-09T05:05:05;28.65;;;26.88;;
33644;SDS011;19986;48.190;16.366;2022-09-09T05:07:31;30.73;;;28.92;;
33644;SDS011;19986;48.190;16.366;2022-09-09T05:09:57;30.67;;;28.80;;
33644;SDS011;19986;48.190;16.366;2022-09-09T05:12:24;30.90;;;29.20;;
33644;SDS011;19986;48.190;16.366;2022-09-09T05:14:53;30.88;;;29.25;;
33644;SDS011;19986;48.190;16.366;2022-09-09T05:17:19;30.52;;;28.83;;
33644;SDS011;19986;48.190;16.366;2022-09-09T05:19:45;31.95;;;29.88;;
33644;SDS011;19986;48.190;16.366;2022-09-09T05:22:11;32.78;;;29.92;;
33644;SDS011;19986;48.190;16.366;2022-09-09T05:24:37;29.85;;;28.10;;
33644;SDS011;19986;48.190;16.366;2022-09-09T05:27:04;29.40;;;27.73;;
33644;SDS011;19986;48.190;16.366;2022-09-09T05:29:31;30.90;;;29.23;;
33644;SDS011;19986;48.190;16.366;2022-09-09T05:31:58;30.98;;;29.13;;
33644;SDS011;19986;48.190;16.366;2022-09-09T05:34:24;29.52;;;27.70;;
33644;SDS011;19986;48.190;16.366;2022-09-09T05:36:53;30.58;;;29.00;;
33644;SDS011;19986;48.190;16.366;2022-09-09T05:39:19;31.50;;;29.73;;
33644;SDS011;19986;48.190;16.366;2022-09-09T05:41:45;30.45;;;28.70;;
33644;SDS011;19986;48.190;16.366;2022-09-09T05:44:11;29.95;;;28.08;;
33644;SDS011;19986;48.190;16.366;2022-09-09T05:46:36;29.33;;;27.63;;
33644;SDS011;19986;48.190;16.366;2022-09-09T05:49:03;29.25;;;27.65;;
33644;SDS011;19986;48.190;16.366;2022-09-09T05:51:30;29.65;;;28.20;;
33644;SDS011;19986;48.190;16.366;2022-09-09T05:53:56;29.70;;;28.20;;
33644;SDS011;19986;48.190;16.366;2022-09-09T05:56:26;29.75;;;28.15;;
33644;SDS011;19986;48.190;16.366;2022-09-09T05:58:53;30.25;;;28.52;;
33644;SDS011;19986;48.190;16.366;2022-09-09T06:01:21;31.42;;;29.60;;
33644;SDS011;19986;48.190;16.366;2022-09-09T06:03:50;30.55;;;28.70;;
33644;SDS011;19986;48.190;16.366;2022-09-09T06:06:21;29.58;;;28.08;;
33644;SDS011;19986;48.190;16.366;2022-09-09T06:08:51;29.60;;;27.90;;
33644;SDS011;19986;48.190;16.366;2022-09-09T06:11:19;29.88;;;28.17;;
33644;SDS011;19986;48.190;16.366;2022-09-09T06:13:47;28.77;;;26.88;;
33644;SDS011;19986;48.190;16.366;2022-09-09T06:16:14;29.60;;;27.98;;
33644;SDS011;19986;48.190;16.366;2022-09-09T06:18:41;30.63;;;28.75;;
33644;SDS011;19986;48.190;16.366;2022-09-09T06:21:17;29.60;;;28.10;;
33644;SDS011;19986;48.190;16.366;2022-09-09T06:23:44;30.50;;;28.45;;
33644;SDS011;19986;48.190;16.366;2022-09-09T06:26:12;30.88;;;28.85;;
33644;SDS011;19986;48.190;16.366;2022-09-09T06:28:40;31.35;;;29.42;;
33644;SDS011;19986;48.190;16.366;2022-09-09T06:31:08;29.60;;;27.80;;
33644;SDS011;19986;48.190;16.366;2022-09-09T06:33:36;29.60;;;27.83;;
33644;SDS011;19986;48.190;16.366;2022-09-09T06:36:16;32.47;;;30.42;;
33644;SDS011;19986;48.190;16.366;2022-09-09T06:38:45;32.53;;;30.63;;
33644;SDS011;19986;48.190;16.366;2022-09-09T06:41:12;31.98;;;29.92;;
33644;SDS011;19986;48.190;16.366;2022-09-09T06:43:40;30.70;;;28.65;;
33644;SDS011;19986;48.190;16.366;2022-09-09T06:46:08;29.98;;;27.80;;
33644;SDS011;19986;48.190;16.366;2022-09-09T06:48:36;31.77;;;29.25;;
33644;SDS011;19986;48.190;16.366;2022-09-09T06:51:07;31.70;;;29.13;;
33644;SDS011;19986;48.190;16.366;2022-09-09T06:53:40;29.02;;;27.10;;
33644;SDS011;19986;48.190;16.366;2022-09-09T06:58:41;30.30;;;28.30;;
33644;SDS011;19986;48.190;16.366;2022-09-09T07:01:10;30.83;;;28.60;;
33644;SDS011;19986;48.190;16.366;2022-09-09T07:03:41;29.90;;;28.23;;
33644;SDS011;19986;48.190;16.366;2022-09-09T07:06:20;28.80;;;26.55;;
33644;SDS011;19986;48.190;16.366;2022-09-09T07:09:00;29.40;;;27.45;;
33644;SDS011;19986;48.190;16.366;2022-09-09T07:11:30;29.13;;;27.25;;
33644;SDS011;19986;48.190;16.366;2022-09-09T07:13:57;30.40;;;28.42;;
33644;SDS011;19986;48.190;16.366;2022-09-09T07:16:24;30.45;;;28.55;;
33644;SDS011;19986;48.190;16.366;2022-09-09T07:18:52;30.90;;;28.92;;
33644;SDS011;19986;48.190;16.366;2022-09-09T07:21:23;32.08;;;29.90;;
33644;SDS011;19986;48.190;16.366;2022-09-09T07:23:51;28.88;;;27.25;;
33644;SDS011;19986;48.190;16.366;2022-09-09T07:26:18;30.25;;;28.30;;
33644;SDS011;19986;48.190;16.366;2022-09-09T07:28:47;29.08;;;26.75;;
33644;SDS011;19986;48.190;16.366;2022-09-09T07:31:18;30.08;;;28.05;;
33644;SDS011;19986;48.190;16.366;2022-09-09T07:33:47;29.27;;;27.48;;
33644;SDS011;19986;48.190;16.366;2022-09-09T07:36:21;28.15;;;26.63;;
33644;SDS011;19986;48.190;16.366;2022-09-09T07:38:53;28.58;;;26.77;;
33644;SDS011;19986;48.190;16.366;2022-09-09T07:41:25;28.40;;;26.77;;
33644;SDS011;19986;48.190;16.366;2022-09-09T07:43:57;28.80;;;27.25;;
33644;SDS011;19986;48.190;16.366;2022-09-09T07:46:24;27.70;;;26.15;;
33644;SDS011;19986;48.190;16.366;2022-09-09T07:48:52;27.13;;;25.60;;
33644;SDS011;19986;48.190;16.366;2022-09-09T07:51:21;28.27;;;26.52;;
33644;SDS011;19986;48.190;16.366;2022-09-09T07:53:47;28.88;;;27.38;;
33644;SDS011;19986;48.190;16.366;2022-09-09T07:56:17;27.98;;;26.50;;
33644;SDS011;19986;48.190;16.366;2022-09-09T07:58:47;26.85;;;25.13;;
33644;SDS011;19986;48.190;16.366;2022-09-09T08:01:15;27.98;;;26.40;;
33644;SDS011;19986;48.190;16.366;2022-09-09T08:03:43;29.02;;;27.35;;
33644;SDS011;19986;48.190;16.366;2022-09-09T08:06:11;29.17;;;27.50;;
33644;SDS011;19986;48.190;16.366;2022-09-09T08:08:39;26.55;;;25.25;;
33644;SDS011;19986;48.190;16.366;2022-09-09T08:13:35;28.30;;;26.40;;
33644;SDS011;19986;48.190;16.366;2022-09-09T08:16:20;27.27;;;25.42;;
33644;SDS011;19986;48.190;16.366;2022-09-09T08:18:48;27.98;;;26.40;;
33644;SDS011;19986;48.190;16.366;2022-09-09T08:21:16;28.52;;;26.70;;
33644;SDS011;19986;48.190;16.366;2022-09-09T08:23:45;27.30;;;25.73;;
33644;SDS011;19986;48.190;16.366;2022-09-09T08:26:14;28.77;;;27.00;;
33644;SDS011;19986;48.190;16.366;2022-09-09T08:28:41;29.70;;;27.90;;
33644;SDS011;19986;48.190;16.366;2022-09-09T08:31:10;26.98;;;25.35;;
33644;SDS011;19986;48.190;16.366;2022-09-09T08:33:41;26.67;;;25.08;;
33644;SDS011;19986;48.190;16.366;2022-09-09T08:36:12;27.92;;;26.23;;
33644;SDS011;19986;48.190;16.366;2022-09-09T08:38:52;28.23;;;26.77;;
33644;SDS011;19986;48.190;16.366;2022-09-09T08:41:36;27.55;;;26.10;;
33644;SDS011;19986;48.190;16.366;2022-09-09T08:53:02;28.52;;;26.73;;
33644;SDS011;19986;48.190;16.366;2022-09-09T08:58:13;28.92;;;27.33;;
33644;SDS011;19986;48.190;16.366;2022-09-09T09:00:44;29.98;;;28.38;;
33644;SDS011;19986;48.190;16.366;2022-09-09T09:11:40;28.48;;;26.77;;
33644;SDS011;19986;48.190;16.366;2022-09-09T09:14:25;28.05;;;25.98;;
33644;SDS011;19986;48.190;16.366;2022-09-09T09:16:56;28.20;;;26.48;;
33644;SDS011;19986;48.190;16.366;2022-09-09T09:19:23;29.83;;;28.02;;
33644;SDS011;19986;48.190;16.366;2022-09-09T09:21:54;29.02;;;27.33;;
33644;SDS011;19986;48.190;16.366;2022-09-09T09:24:25;26.75;;;25.38;;
33644;SDS011;19986;48.190;16.366;2022-09-09T09:27:00;27.25;;;25.67;;
33644;SDS011;19986;48.190;16.366;2022-09-09T09:29:40;27.20;;;25.77;;
33644;SDS011;19986;48.190;16.366;2022-09-09T09:32:10;26.92;;;25.33;;
33644;SDS011;19986;48.190;16.366;2022-09-09T09:34:40;26.33;;;24.92;;
33644;SDS011;19986;48.190;16.366;2022-09-09T09:37:12;25.75;;;24.40;;
33644;SDS011;19986;48.190;16.366;2022-09-09T09:39:55;27.95;;;26.55;;
33644;SDS011;19986;48.190;16.366;2022-09-09T09:42:21;26.95;;;25.55;;
33644;SDS011;19986;48.190;16.366;2022-09-09T09:44:47;27.17;;;25.52;;
33644;SDS011;19986;48.190;16.366;2022-09-09T09:47:15;26.13;;;24.70;;
33644;SDS011;19986;48.190;16.366;2022-09-09T09:49:59;26.95;;;25.50;;
33644;SDS011;19986;48.190;16.366;2022-09-09T09:52:27;26.70;;;25.17;;
33644;SDS011;19986;48.190;16.366;2022-09-09T09:54:55;25.17;;;23.98;;
33644;SDS011;19986;48.190;16.366;2022-09-09T09:57:27;27.02;;;25.58;;
33644;SDS011;19986;48.190;16.366;2022-09-09T10:00:11;27.05;;;25.55;;
33644;SDS011;19986;48.190;16.366;2022-09-09T10:02:43;26.55;;;24.95;;
33644;SDS011;19986;48.190;16.366;2022-09-09T10:05:18;26.65;;;25.15;;
33644;SDS011;19986;48.190;16.366;2022-09-09T10:07:46;26.70;;;25.20;;
33644;SDS011;19986;48.190;16.366;2022-09-09T10:10:20;28.33;;;26.80;;
33644;SDS011;19986;48.190;16.366;2022-09-09T10:15:32;29.67;;;27.77;;
33644;SDS011;19986;48.190;16.366;2022-09-09T10:21:24;27.25;;;25.60;;
33644;SDS011;19986;48.190;16.366;2022-09-09T10:32:21;26.98;;;25.00;;
33644;SDS011;19986;48.190;16.366;2022-09-09T10:38:21;27.13;;;25.60;;
33644;SDS011;19986;48.190;16.366;2022-09-09T10:54:46;26.45;;;25.13;;
33644;SDS011;19986;48.190;16.366;2022-09-09T10:57:17;24.90;;;23.48;;
33644;SDS011;19986;48.190;16.366;2022-09-09T10:59:55;26.42;;;24.85;;
33644;SDS011;19986;48.190;16.366;2022-09-09T11:02:28;24.70;;;23.40;;
33644;SDS011;19986;48.190;16.366;2022-09-09T11:05:01;25.55;;;24.17;;
33644;SDS011;19986;48.190;16.366;2022-09-09T11:08:40;25.98;;;24.50;;
33644;SDS011;19986;48.190;16.366;2022-09-09T11:13:05;26.33;;;24.88;;
33644;SDS011;19986;48.190;16.366;2022-09-09T11:15:44;28.70;;;27.02;;
33644;SDS011;19986;48.190;16.366;2022-09-09T11:18:18;31.90;;;29.90;;
33644;SDS011;19986;48.190;16.366;2022-09-09T11:20:47;25.90;;;24.50;;
33644;SDS011;19986;48.190;16.366;2022-09-09T11:23:29;26.05;;;24.60;;
33644;SDS011;19986;48.190;16.366;2022-09-09T11:26:04;26.08;;;24.73;;
33644;SDS011;19986;48.190;16.366;2022-09-09T11:41:49;26.50;;;25.10;;
33644;SDS011;19986;48.190;16.366;2022-09-09T11:44:17;28.55;;;26.75;;
33644;SDS011;19986;48.190;16.366;2022-09-09T11:46:55;31.42;;;29.45;;
33644;SDS011;19986;48.190;16.366;2022-09-09T11:49:28;26.23;;;24.83;;
33644;SDS011;19986;48.190;16.366;2022-09-09T11:51:56;27.08;;;25.50;;
33644;SDS011;19986;48.190;16.366;2022-09-09T11:56:56;25.38;;;24.08;;
33644;SDS011;19986;48.190;16.366;2022-09-09T11:59:23;24.80;;;23.50;;
33644;SDS011;19986;48.190;16.366;2022-09-09T12:01:57;23.70;;;22.40;;
33644;SDS011;19986;48.190;16.366;2022-09-09T12:04:30;25.27;;;23.88;;
33644;SDS011;19986;48.190;16.366;2022-09-09T12:17:29;27.10;;;25.70;;
33644;SDS011;19986;48.190;16.366;2022-09-09T12:39:58;23.95;;;22.80;;
33644;SDS011;19986;48.190;16.366;2022-09-09T12:42:28;24.00;;;22.70;;
33644;SDS011;19986;48.190;16.366;2022-09-09T12:44:57;24.88;;;23.67;;
33644;SDS011;19986;48.190;16.366;2022-09-09T12:53:01;24.77;;;23.67;;
33644;SDS011;19986;48.190;16.366;2022-09-09T12:55:50;23.55;;;22.35;;
33644;SDS011;19986;48.190;16.366;2022-09-09T12:58:21;25.63;;;24.23;;
33644;SDS011;19986;48.190;16.366;2022-09-09T13:00:48;23.75;;;22.40;;
33644;SDS011;19986;48.190;16.366;2022-09-09T13:03:18;25.85;;;24.15;;
33644;SDS011;19986;48.190;16.366;2022-09-09T13:05:50;25.88;;;24.35;;
33644;SDS011;19986;48.190;16.366;2022-09-09T13:08:17;27.45;;;25.85;;
33644;SDS011;19986;48.190;16.366;2022-09-09T13:10:47;23.40;;;22.30;;
33644;SDS011;19986;48.190;16.366;2022-09-09T13:13:25;24.77;;;23.58;;
33644;SDS011;19986;48.190;16.366;2022-09-09T13:15:58;24.95;;;23.65;;
33644;SDS011;19986;48.190;16.366;2022-09-09T13:18:29;24.73;;;23.42;;
33644;SDS011;19986;48.190;16.366;2022-09-09T13:20:58;26.40;;;25.10;;
33644;SDS011;19986;48.190;16.366;2022-09-09T13:23:32;25.20;;;24.00;;
33644;SDS011;19986;48.190;16.366;2022-09-09T13:26:01;23.52;;;22.33;;
33644;SDS011;19986;48.190;16.366;2022-09-09T13:28:30;26.92;;;25.30;;
33644;SDS011;19986;48.190;16.366;2022-09-09T13:31:03;24.10;;;22.83;;
33644;SDS011;19986;48.190;16.366;2022-09-09T13:33:36;25.50;;;24.30;;
33644;SDS011;19986;48.190;16.366;2022-09-09T13:36:07;25.98;;;23.75;;
33644;SDS011;19986;48.190;16.366;2022-09-09T13:38:38;24.42;;;23.23;;
33644;SDS011;19986;48.190;16.366;2022-09-09T13:41:29;26.48;;;25.17;;
33644;SDS011;19986;48.190;16.366;2022-09-09T13:44:00;26.15;;;24.85;;
33644;SDS011;19986;48.190;16.366;2022-09-09T13:51:35;25.02;;;23.73;;
33644;SDS011;19986;48.190;16.366;2022-09-09T13:54:05;24.38;;;23.08;;
33644;SDS011;19986;48.190;16.366;2022-09-09T13:56:32;26.35;;;24.95;;
33644;SDS011;19986;48.190;16.366;2022-09-09T13:58:58;26.65;;;25.35;;
33644;SDS011;19986;48.190;16.366;2022-09-09T14:01:26;26.63;;;25.23;;
33644;SDS011;19986;48.190;16.366;2022-09-09T14:03:53;25.58;;;24.17;;
33644;SDS011;19986;48.190;16.366;2022-09-09T14:06:19;26.10;;;24.90;;
33644;SDS011;19986;48.190;16.366;2022-09-09T14:08:47;26.42;;;24.92;;
33644;SDS011;19986;48.190;16.366;2022-09-09T14:11:16;26.77;;;25.15;;
33644;SDS011;19986;48.190;16.366;2022-09-09T14:13:43;24.95;;;23.63;;
33644;SDS011;19986;48.190;16.366;2022-09-09T14:16:09;26.55;;;25.25;;
33644;SDS011;19986;48.190;16.366;2022-09-09T14:18:35;26.25;;;24.95;;
33644;SDS011;19986;48.190;16.366;2022-09-09T14:21:03;26.00;;;24.58;;
33644;SDS011;19986;48.190;16.366;2022-09-09T14:23:28;25.35;;;23.98;;
33644;SDS011;19986;48.190;16.366;2022-09-09T14:25:55;26.77;;;25.27;;
33644;SDS011;19986;48.190;16.366;2022-09-09T14:28:21;26.38;;;24.98;;
33644;SDS011;19986;48.190;16.366;2022-09-09T14:30:47;25.35;;;23.95;;
33644;SDS011;19986;48.190;16.366;2022-09-09T14:33:13;26.55;;;25.25;;
33644;SDS011;19986;48.190;16.366;2022-09-09T14:35:41;25.90;;;23.67;;
33644;SDS011;19986;48.190;16.366;2022-09-09T14:38:08;26.00;;;24.40;;
33644;SDS011;19986;48.190;16.366;2022-09-09T14:40:36;26.15;;;24.80;;
33644;SDS011;19986;48.190;16.366;2022-09-09T14:43:03;26.80;;;25.40;;
33644;SDS011;19986;48.190;16.366;2022-09-09T14:45:30;27.05;;;25.75;;
33644;SDS011;19986;48.190;16.366;2022-09-09T14:47:57;27.67;;;26.00;;
33644;SDS011;19986;48.190;16.366;2022-09-09T14:50:23;26.63;;;25.33;;
33644;SDS011;19986;48.190;16.366;2022-09-09T14:52:49;26.83;;;25.42;;
33644;SDS011;19986;48.190;16.366;2022-09-09T14:55:15;26.20;;;24.65;;
33644;SDS011;19986;48.190;16.366;2022-09-09T14:57:42;25.50;;;24.25;;
33644;SDS011;19986;48.190;16.366;2022-09-09T15:00:09;26.75;;;25.45;;
33644;SDS011;19986;48.190;16.366;2022-09-09T15:02:36;27.02;;;25.42;;
33644;SDS011;19986;48.190;16.366;2022-09-09T15:05:02;27.02;;;25.33;;
33644;SDS011;19986;48.190;16.366;2022-09-09T15:07:29;27.90;;;26.30;;
33644;SDS011;19986;48.190;16.366;2022-09-09T15:09:57;27.90;;;26.40;;
33644;SDS011;19986;48.190;16.366;2022-09-09T15:12:23;27.00;;;25.60;;
33644;SDS011;19986;48.190;16.366;2022-09-09T15:14:50;27.35;;;26.00;;
33644;SDS011;19986;48.190;16.366;2022-09-09T15:17:16;27.52;;;25.98;;
33644;SDS011;19986;48.190;16.366;2022-09-09T15:19:42;27.27;;;25.60;;
33644;SDS011;19986;48.190;16.366;2022-09-09T15:22:08;28.40;;;26.85;;
33644;SDS011;19986;48.190;16.366;2022-09-09T15:24:34;27.83;;;26.52;;
33644;SDS011;19986;48.190;16.366;2022-09-09T15:27:00;26.95;;;25.55;;
33644;SDS011;19986;48.190;16.366;2022-09-09T15:29:27;27.15;;;25.70;;
33644;SDS011;19986;48.190;16.366;2022-09-09T15:31:53;26.52;;;24.75;;
33644;SDS011;19986;48.190;16.366;2022-09-09T15:34:20;28.38;;;26.85;;
33644;SDS011;19986;48.190;16.366;2022-09-09T15:36:46;26.73;;;25.40;;
33644;SDS011;19986;48.190;16.366;2022-09-09T15:39:13;26.00;;;24.45;;
33644;SDS011;19986;48.190;16.366;2022-09-09T15:41:41;26.85;;;25.40;;
33644;SDS011;19986;48.190;16.366;2022-09-09T15:44:11;28.52;;;27.08;;
33644;SDS011;19986;48.190;16.366;2022-09-09T15:46:38;26.90;;;25.60;;
33644;SDS011;19986;48.190;16.366;2022-09-09T15:51:36;27.73;;;26.33;;
33644;SDS011;19986;48.190;16.366;2022-09-09T15:54:04;27.60;;;26.30;;
33644;SDS011;19986;48.190;16.366;2022-09-09T15:56:30;27.75;;;26.35;;
33644;SDS011;19986;48.190;16.366;2022-09-09T15:58:58;28.42;;;26.95;;
33644;SDS011;19986;48.190;16.366;2022-09-09T16:01:25;27.92;;;26.48;;
33644;SDS011;19986;48.190;16.366;2022-09-09T16:03:52;29.30;;;27.60;;
33644;SDS011;19986;48.190;16.366;2022-09-09T16:06:19;28.33;;;26.80;;
33644;SDS011;19986;48.190;16.366;2022-09-09T16:08:47;30.23;;;28.40;;
33644;SDS011;19986;48.190;16.366;2022-09-09T16:11:25;29.40;;;27.70;;
33644;SDS011;19986;48.190;16.366;2022-09-09T16:13:56;27.63;;;26.13;;
33644;SDS011;19986;48.190;16.366;2022-09-09T16:16:23;29.88;;;28.08;;
33644;SDS011;19986;48.190;16.366;2022-09-09T16:18:52;29.23;;;27.48;;
33644;SDS011;19986;48.190;16.366;2022-09-09T16:23:45;27.92;;;26.45;;
33644;SDS011;19986;48.190;16.366;2022-09-09T16:26:12;27.38;;;25.98;;
33644;SDS011;19986;48.190;16.366;2022-09-09T16:28:40;26.95;;;25.65;;
33644;SDS011;19986;48.190;16.366;2022-09-09T16:31:06;29.33;;;27.52;;
33644;SDS011;19986;48.190;16.366;2022-09-09T16:33:35;28.55;;;27.10;;
33644;SDS011;19986;48.190;16.366;2022-09-09T16:38:55;28.88;;;27.25;;
33644;SDS011;19986;48.190;16.366;2022-09-09T16:41:25;28.13;;;26.73;;
33644;SDS011;19986;48.190;16.366;2022-09-09T16:43:55;28.55;;;26.90;;
33644;SDS011;19986;48.190;16.366;2022-09-09T16:46:23;25.95;;;24.63;;
33644;SDS011;19986;48.190;16.366;2022-09-09T16:48:49;27.58;;;26.15;;
33644;SDS011;19986;48.190;16.366;2022-09-09T16:51:17;28.80;;;27.25;;
33644;SDS011;19986;48.190;16.366;2022-09-09T16:53:43;29.40;;;27.90;;
33644;SDS011;19986;48.190;16.366;2022-09-09T16:56:10;28.40;;;26.90;;
33644;SDS011;19986;48.190;16.366;2022-09-09T16:58:38;28.00;;;26.50;;
33644;SDS011;19986;48.190;16.366;2022-09-09T17:01:04;30.15;;;28.35;;
33644;SDS011;19986;48.190;16.366;2022-09-09T17:03:30;25.05;;;23.65;;
33644;SDS011;19986;48.190;16.366;2022-09-09T17:05:58;27.67;;;26.38;;
33644;SDS011;19986;48.190;16.366;2022-09-09T17:08:29;28.70;;;27.30;;
33644;SDS011;19986;48.190;16.366;2022-09-09T17:10:56;26.65;;;25.25;;
33644;SDS011;19986;48.190;16.366;2022-09-09T17:13:22;25.88;;;24.58;;
33644;SDS011;19986;48.190;16.366;2022-09-09T17:15:49;29.02;;;27.45;;
33644;SDS011;19986;48.190;16.366;2022-09-09T17:18:15;27.33;;;25.83;;
33644;SDS011;19986;48.190;16.366;2022-09-09T17:20:42;28.15;;;26.35;;
33644;SDS011;19986;48.190;16.366;2022-09-09T17:23:09;27.42;;;26.10;;